createdAt,value
2019-05-14T00:00:34.442Z,75.60
2019-05-14T00:01:34.351Z,75.81
2019-05-14T00:02:34.454Z,75.49
2019-05-14T00:03:34.352Z,75.91
2019-05-14T00:04:34.394Z,76.12
2019-05-14T00:05:34.300Z,76.12
2019-05-14T00:06:34.381Z,77.04
2019-05-14T00:07:34.281Z,76.53
2019-05-14T00:08:34.422Z,76.73
2019-05-14T00:09:34.262Z,76.94
2019-05-14T00:10:34.309Z,77.25
2019-05-14T00:11:34.243Z,76.73
2019-05-14T00:12:34.339Z,77.15
2019-05-14T00:13:34.220Z,77.15
2019-05-14T00:14:39.809Z,76.73
2019-05-14T00:15:35.199Z,77.36
2019-05-14T00:16:34.260Z,76.84
2019-05-14T00:17:34.172Z,76.77
2019-05-14T00:18:34.262Z,76.98
2019-05-14T00:19:34.185Z,76.98
2019-05-14T00:20:34.173Z,77.29
2019-05-14T00:21:34.136Z,78.32
2019-05-14T00:22:34.186Z,77.91
2019-05-14T00:23:34.113Z,77.64
2019-05-14T00:24:34.234Z,77.84
2019-05-14T00:25:34.087Z,78.56
2019-05-14T00:26:34.114Z,79.08
2019-05-14T00:27:34.074Z,79.08
2019-05-14T00:28:34.130Z,78.36
2019-05-14T00:29:34.134Z,79.02
2019-05-14T00:30:34.165Z,79.08
2019-05-14T00:31:34.025Z,78.91
2019-05-14T00:32:34.055Z,79.12
2019-05-14T00:33:34.002Z,80.05
2019-05-14T00:34:34.062Z,79.84
2019-05-14T00:35:35.752Z,79.84
2019-05-14T00:36:34.083Z,79.88
2019-05-14T00:37:33.958Z,80.36
2019-05-14T00:38:33.988Z,80.05
2019-05-14T00:39:33.939Z,79.84
2019-05-14T00:40:34.031Z,80.08
2019-05-14T00:41:33.916Z,80.57
2019-05-14T00:42:34.016Z,81.12
2019-05-14T00:43:33.912Z,80.91
2019-05-14T00:44:33.962Z,81.23
2019-05-14T00:45:33.882Z,81.23
2019-05-14T00:46:33.942Z,81.43
2019-05-14T00:47:33.845Z,81.95
2019-05-14T00:48:33.954Z,81.74
2019-05-14T00:49:33.831Z,82.19
2019-05-14T00:50:33.898Z,82.40
2019-05-14T00:51:33.803Z,82.71
2019-05-14T00:52:33.888Z,82.71
2019-05-14T00:53:33.784Z,82.71
2019-05-14T00:54:33.893Z,82.71
2019-05-14T00:55:33.812Z,82.71
2019-05-14T00:56:33.813Z,82.71
2019-05-14T00:57:33.741Z,83.23
2019-05-14T00:58:33.825Z,83.12
2019-05-14T00:59:33.729Z,82.75
2019-05-14T01:00:33.861Z,83.12
2019-05-14T01:01:33.716Z,82.92
2019-05-14T01:02:33.739Z,82.95
2019-05-14T01:03:33.669Z,82.95
2019-05-14T01:04:33.756Z,82.75
2019-05-14T01:05:33.684Z,83.06
2019-05-14T01:06:33.671Z,83.06
2019-05-14T01:07:33.629Z,82.75
2019-05-14T01:08:33.702Z,82.95
2019-05-14T01:09:33.611Z,83.26
2019-05-14T01:10:33.732Z,82.86
2019-05-14T01:11:33.599Z,82.86
2019-05-14T01:12:33.608Z,83.16
2019-05-14T01:13:33.567Z,83.06
2019-05-14T01:14:33.653Z,83.58
2019-05-14T01:15:33.571Z,84.03
2019-05-14T01:16:33.670Z,84.23
2019-05-14T01:17:33.542Z,84.03
2019-05-14T01:18:33.547Z,83.89
2019-05-14T01:19:33.506Z,83.83
2019-05-14T01:20:33.567Z,84.13
2019-05-14T01:21:33.549Z,84.03
2019-05-14T01:22:33.578Z,84.07
2019-05-14T01:23:33.461Z,83.86
2019-05-14T01:24:33.497Z,84.59
2019-05-14T01:25:33.478Z,84.69
2019-05-14T01:26:33.659Z,84.38
2019-05-14T01:27:33.409Z,85.21
2019-05-14T01:28:33.516Z,85.83
2019-05-14T01:29:33.417Z,84.80
2019-05-14T01:30:33.461Z,85.00
2019-05-14T01:31:33.384Z,85.11
2019-05-14T01:32:33.450Z,85.42
2019-05-14T01:33:33.360Z,85.52
2019-05-14T01:34:33.462Z,85.73
2019-05-14T01:35:33.375Z,85.73
2019-05-14T01:37:34.440Z,85.94
2019-05-14T01:38:33.387Z,86.49
2019-05-14T01:39:33.287Z,86.55
2019-05-14T01:40:33.439Z,86.45
2019-05-14T01:41:33.264Z,87.18
2019-05-14T01:42:33.325Z,87.28
2019-05-14T01:43:33.241Z,86.55
2019-05-14T01:44:33.347Z,86.25
2019-05-14T01:45:33.262Z,85.94
2019-05-14T01:46:33.340Z,85.94
2019-05-14T01:47:33.199Z,85.97
2019-05-14T01:48:33.259Z,85.87
2019-05-14T01:49:33.177Z,85.97
2019-05-14T01:50:33.278Z,85.97
2019-05-14T01:51:33.190Z,85.97
2019-05-14T01:52:33.177Z,86.80
2019-05-14T01:53:33.135Z,86.45
2019-05-14T01:54:33.188Z,86.08
2019-05-14T01:55:33.117Z,86.60
2019-05-14T01:56:33.239Z,86.49
2019-05-14T01:57:33.125Z,87.12
2019-05-14T01:58:33.134Z,87.43
2019-05-14T01:59:33.069Z,87.01
2019-05-14T02:00:33.139Z,87.43
2019-05-14T02:01:33.059Z,87.32
2019-05-14T02:02:33.192Z,86.91
2019-05-14T02:03:33.042Z,87.43
2019-05-14T02:04:33.054Z,87.74
2019-05-14T02:05:33.009Z,87.32
2019-05-14T02:06:33.081Z,87.84
2019-05-14T02:07:33.009Z,87.12
2019-05-14T02:08:33.099Z,87.12
2019-05-14T02:09:32.982Z,86.91
2019-05-14T02:10:32.998Z,87.22
2019-05-14T02:11:32.967Z,87.43
2019-05-14T02:12:33.006Z,87.47
2019-05-14T02:13:32.941Z,87.01
2019-05-14T02:14:33.020Z,87.16
2019-05-14T02:15:39.196Z,87.16
2019-05-14T02:16:33.989Z,87.16
2019-05-14T02:17:32.901Z,87.78
2019-05-14T02:18:32.958Z,87.37
2019-05-14T02:19:32.861Z,87.57
2019-05-14T02:20:32.977Z,87.71
2019-05-14T02:21:32.835Z,87.68
2019-05-14T02:22:32.917Z,87.78
2019-05-14T02:23:32.809Z,87.92
2019-05-14T02:24:32.897Z,88.23
2019-05-14T02:25:32.788Z,88.85
2019-05-14T02:26:32.903Z,89.79
2019-05-14T02:27:35.037Z,89.79
2019-05-14T02:28:32.817Z,89.48
2019-05-14T02:29:32.748Z,89.48
2019-05-14T02:30:46.784Z,89.48
2019-05-14T02:31:33.739Z,89.27
2019-05-14T02:32:32.880Z,89.69
2019-05-14T02:33:32.706Z,89.48
2019-05-14T02:34:32.759Z,89.69
2019-05-14T02:35:32.690Z,89.48
2019-05-14T02:36:32.779Z,89.69
2019-05-14T02:37:32.657Z,89.58
2019-05-14T02:38:32.718Z,89.69
2019-05-14T02:39:32.644Z,89.48
2019-05-14T02:40:32.691Z,89.48
2019-05-14T02:41:32.630Z,89.48
2019-05-14T02:42:32.715Z,90.00
2019-05-14T02:43:32.625Z,90.31
2019-05-14T02:44:32.628Z,90.10
2019-05-14T02:45:33.260Z,89.89
2019-05-14T02:46:32.651Z,90.52
2019-05-14T02:47:32.550Z,90.00
2019-05-14T02:48:32.674Z,90.31
2019-05-14T02:49:32.543Z,90.00
2019-05-14T02:50:32.554Z,90.66
2019-05-14T02:51:32.519Z,90.31
2019-05-14T02:52:32.573Z,91.14
2019-05-14T02:53:32.505Z,90.83
2019-05-14T02:54:32.592Z,90.31
2019-05-14T02:55:32.479Z,90.83
2019-05-14T02:56:32.500Z,90.41
2019-05-14T02:57:32.446Z,90.52
2019-05-14T02:58:32.540Z,90.52
2019-05-14T02:59:32.437Z,90.72
2019-05-14T03:00:32.528Z,90.62
2019-05-14T03:01:32.399Z,91.18
2019-05-14T03:02:32.433Z,91.45
2019-05-14T03:03:32.405Z,91.76
2019-05-14T03:04:32.469Z,91.76
2019-05-14T03:05:32.381Z,91.76
2019-05-14T03:06:32.465Z,91.66
2019-05-14T03:07:32.327Z,91.76
2019-05-14T03:08:32.416Z,91.66
2019-05-14T03:09:32.334Z,90.93
2019-05-14T03:10:32.410Z,91.45
2019-05-14T03:11:32.288Z,90.93
2019-05-14T03:12:32.409Z,91.03
2019-05-14T03:13:32.311Z,91.24
2019-05-14T03:14:32.330Z,90.66
2019-05-14T03:15:32.243Z,90.93
2019-05-14T03:16:35.658Z,91.03
2019-05-14T03:17:32.218Z,91.08
2019-05-14T03:18:32.259Z,91.14
2019-05-14T03:19:32.231Z,91.28
2019-05-14T03:20:32.264Z,91.80
2019-05-14T03:21:32.175Z,91.76
2019-05-14T03:22:52.552Z,91.08
2019-05-14T03:23:33.184Z,91.80
2019-05-14T03:24:32.216Z,91.70
2019-05-14T03:25:32.138Z,92.59
2019-05-14T03:26:32.203Z,92.22
2019-05-14T03:27:32.124Z,92.32
2019-05-14T03:28:32.235Z,92.38
2019-05-14T03:29:32.125Z,92.49
2019-05-14T03:30:33.060Z,92.69
2019-05-14T03:31:33.453Z,92.38
2019-05-14T03:32:33.282Z,92.80
2019-05-14T03:33:33.876Z,92.76
2019-05-14T03:34:33.469Z,92.38
2019-05-14T03:35:41.508Z,92.24
2019-05-14T03:36:35.167Z,92.24
2019-05-14T03:37:32.073Z,92.66
2019-05-14T03:38:31.991Z,91.83
2019-05-14T03:39:32.111Z,91.62
2019-05-14T03:40:31.972Z,91.10
2019-05-14T03:41:32.038Z,91.72
2019-05-14T03:42:31.940Z,90.89
2019-05-14T03:43:32.022Z,91.00
2019-05-14T03:44:32.070Z,91.10
2019-05-14T03:45:32.034Z,91.10
2019-05-14T03:46:45.610Z,91.00
2019-05-14T03:47:32.889Z,90.79
2019-05-14T03:48:31.945Z,91.16
2019-05-14T03:49:31.899Z,91.00
2019-05-14T03:50:31.956Z,90.79
2019-05-14T03:51:31.845Z,90.44
2019-05-14T03:52:31.867Z,90.85
2019-05-14T03:53:31.824Z,90.64
2019-05-14T03:54:31.914Z,90.75
2019-05-14T03:55:31.806Z,90.54
2019-05-14T03:56:31.905Z,90.64
2019-05-14T03:57:31.789Z,90.54
2019-05-14T03:58:31.805Z,90.33
2019-05-14T03:59:31.817Z,90.44
2019-05-14T04:00:31.844Z,90.44
2019-05-14T04:01:31.733Z,90.75
2019-05-14T04:02:31.837Z,90.85
2019-05-14T04:03:31.725Z,90.75
2019-05-14T04:04:31.748Z,90.54
2019-05-14T04:05:31.727Z,90.54
2019-05-14T04:06:31.755Z,90.54
2019-05-14T04:07:31.681Z,90.23
2019-05-14T04:08:31.777Z,90.75
2019-05-14T04:09:31.661Z,90.95
2019-05-14T04:10:31.740Z,90.75
2019-05-14T04:11:31.636Z,91.27
2019-05-14T04:12:31.707Z,91.06
2019-05-14T04:13:31.633Z,90.75
2019-05-14T04:14:31.717Z,90.64
2019-05-14T04:15:31.628Z,91.16
2019-05-14T04:16:31.621Z,90.91
2019-05-14T04:17:37.328Z,90.91
2019-05-14T04:18:32.551Z,91.06
2019-05-14T04:19:31.643Z,90.39
2019-05-14T04:20:31.528Z,90.39
2019-05-14T04:21:31.594Z,90.50
2019-05-14T04:22:31.511Z,90.25
2019-05-14T04:23:31.568Z,90.50
2019-05-14T04:24:31.515Z,89.87
2019-05-14T04:25:31.621Z,89.94
2019-05-14T04:26:31.490Z,89.94
2019-05-14T04:27:31.491Z,90.14
2019-05-14T04:28:31.445Z,89.83
2019-05-14T04:29:31.515Z,89.73
2019-05-14T04:30:31.455Z,90.00
2019-05-14T04:31:32.481Z,90.00
2019-05-14T04:32:31.547Z,89.28
2019-05-14T04:34:32.527Z,89.34
2019-05-14T04:35:31.452Z,89.38
2019-05-14T04:36:31.403Z,89.38
2019-05-14T04:37:31.460Z,89.03
2019-05-14T04:38:31.362Z,89.23
2019-05-14T04:39:31.390Z,89.23
2019-05-14T04:40:31.310Z,89.50
2019-05-14T04:41:31.419Z,88.57
2019-05-14T04:42:31.292Z,88.46
2019-05-14T04:43:31.315Z,89.29
2019-05-14T04:44:31.279Z,89.19
2019-05-14T04:45:31.315Z,89.19
2019-05-14T04:46:31.278Z,89.19
2019-05-14T04:47:37.023Z,88.57
2019-05-14T04:48:37.691Z,88.67
2019-05-14T04:49:32.216Z,88.46
2019-05-14T04:50:31.243Z,88.67
2019-05-14T04:51:31.221Z,88.46
2019-05-14T04:52:31.260Z,88.46
2019-05-14T04:53:31.293Z,88.26
2019-05-14T04:54:31.278Z,88.57
2019-05-14T04:55:31.151Z,88.53
2019-05-14T04:56:31.216Z,88.43
2019-05-14T04:57:31.697Z,88.43
2019-05-14T04:58:31.206Z,88.64
2019-05-14T04:59:31.111Z,88.84
2019-05-14T05:00:31.217Z,88.64
2019-05-14T05:01:31.124Z,88.43
2019-05-14T05:02:31.136Z,88.32
2019-05-14T05:03:31.762Z,87.87
2019-05-14T05:04:31.137Z,87.76
2019-05-14T05:05:31.054Z,87.66
2019-05-14T05:06:31.193Z,87.41
2019-05-14T05:07:31.062Z,87.10
2019-05-14T05:08:31.127Z,87.10
2019-05-14T05:09:31.002Z,86.90
2019-05-14T05:10:31.082Z,86.79
2019-05-14T05:11:30.982Z,86.76
2019-05-14T05:12:31.131Z,86.76
2019-05-14T05:13:30.956Z,87.07
2019-05-14T05:14:31.000Z,86.13
2019-05-14T05:15:30.943Z,85.62
2019-05-14T05:16:31.017Z,85.52
2019-05-14T05:17:43.048Z,85.52
2019-05-14T05:18:31.892Z,85.58
2019-05-14T05:19:30.937Z,84.44
2019-05-14T05:20:30.877Z,85.27
2019-05-14T05:21:30.950Z,84.20
2019-05-14T05:22:30.889Z,84.72
2019-05-14T05:23:31.002Z,84.61
2019-05-14T05:24:30.834Z,83.68
2019-05-14T05:25:30.875Z,83.58
2019-05-14T05:26:30.815Z,83.37
2019-05-14T05:27:30.923Z,83.23
2019-05-14T05:28:30.792Z,84.06
2019-05-14T05:29:30.929Z,83.64
2019-05-14T05:30:30.768Z,83.44
2019-05-14T05:31:30.819Z,83.44
2019-05-14T05:32:30.780Z,83.64
2019-05-14T05:33:30.823Z,82.61
2019-05-14T05:34:30.736Z,82.61
2019-05-14T05:35:30.843Z,82.40
2019-05-14T05:36:30.701Z,82.78
2019-05-14T05:37:30.786Z,82.61
2019-05-14T05:38:30.687Z,82.40
2019-05-14T05:39:30.764Z,82.37
2019-05-14T05:40:30.667Z,82.37
2019-05-14T05:41:30.678Z,82.16
2019-05-14T05:42:30.695Z,81.81
2019-05-14T05:43:30.688Z,82.37
2019-05-14T05:44:30.629Z,82.26
2019-05-14T05:45:30.709Z,82.26
2019-05-14T05:46:30.599Z,82.37
2019-05-14T05:47:30.614Z,82.57
2019-05-14T05:48:30.639Z,82.33
2019-05-14T05:49:30.624Z,82.37
2019-05-14T05:50:30.564Z,82.02
2019-05-14T05:51:30.557Z,82.06
2019-05-14T05:52:30.544Z,81.51
2019-05-14T05:53:30.552Z,81.71
2019-05-14T05:54:30.508Z,81.61
2019-05-14T05:55:30.514Z,81.92
2019-05-14T05:56:30.488Z,80.99
2019-05-14T05:57:30.521Z,81.09
2019-05-14T05:58:30.500Z,80.85
2019-05-14T05:59:30.490Z,80.65
2019-05-14T06:00:30.457Z,80.47
2019-05-14T06:01:42.200Z,79.93
2019-05-14T06:02:31.438Z,79.61
2019-05-14T06:03:30.618Z,78.89
2019-05-14T06:04:30.428Z,79.10
2019-05-14T06:05:30.421Z,79.10
2019-05-14T06:06:30.375Z,78.75
2019-05-14T06:07:30.386Z,78.79
2019-05-14T06:08:30.383Z,79.79
2019-05-14T06:09:30.352Z,78.79
2019-05-14T06:10:30.332Z,78.65
2019-05-14T06:11:30.325Z,78.24
2019-05-14T06:12:30.324Z,78.44
2019-05-14T06:13:30.366Z,78.82
2019-05-14T06:14:30.303Z,78.51
2019-05-14T06:15:44.474Z,78.10
2019-05-14T06:16:31.274Z,78.92
2019-05-14T06:17:30.265Z,78.27
2019-05-14T06:18:30.317Z,77.89
2019-05-14T06:19:30.274Z,77.14
2019-05-14T06:20:30.242Z,77.34
2019-05-14T06:21:30.298Z,76.93
2019-05-14T06:22:30.207Z,77.75
2019-05-14T06:23:30.230Z,77.24
2019-05-14T06:24:30.207Z,76.83
2019-05-14T06:25:31.234Z,77.34
2019-05-14T06:26:30.162Z,76.93
2019-05-14T06:27:30.175Z,77.00
2019-05-14T06:28:33.625Z,77.03
2019-05-14T06:29:30.179Z,77.00
2019-05-14T06:30:30.218Z,77.20
2019-05-14T06:31:30.104Z,76.79
2019-05-14T06:32:30.215Z,76.65
2019-05-14T06:33:30.092Z,75.93
2019-05-14T06:34:30.128Z,75.56
2019-05-14T06:35:30.063Z,76.35
2019-05-14T06:36:30.056Z,75.35
2019-05-14T06:37:30.269Z,75.93
2019-05-14T06:38:30.026Z,76.35
2019-05-14T06:39:30.164Z,76.25
2019-05-14T06:40:30.003Z,75.08
2019-05-14T06:41:29.993Z,75.18
2019-05-14T06:42:29.983Z,74.46
2019-05-14T06:43:29.986Z,74.26
2019-05-14T06:44:30.032Z,74.36
2019-05-14T06:45:29.970Z,74.53
2019-05-14T06:46:30.003Z,75.45
2019-05-14T06:47:29.933Z,74.53
2019-05-14T06:48:34.308Z,74.29
2019-05-14T06:49:29.947Z,74.12
2019-05-14T06:50:29.904Z,73.16
2019-05-14T06:51:29.881Z,73.16
2019-05-14T06:52:29.877Z,73.06
2019-05-14T06:53:29.874Z,72.82
2019-05-14T06:54:29.906Z,73.13
2019-05-14T06:55:29.835Z,72.61
2019-05-14T06:56:29.844Z,72.51
2019-05-14T06:57:29.821Z,72.41
2019-05-14T06:58:30.075Z,71.80
2019-05-14T06:59:29.820Z,71.97
2019-05-14T07:00:29.969Z,71.25
2019-05-14T07:01:29.788Z,71.45
2019-05-14T07:02:29.807Z,71.66
2019-05-14T07:03:29.772Z,71.35
2019-05-14T07:04:29.820Z,71.15
2019-05-14T07:05:29.764Z,71.56
2019-05-14T07:06:29.729Z,71.35
2019-05-14T07:07:30.296Z,70.53
2019-05-14T07:08:29.702Z,71.15
2019-05-14T07:09:29.684Z,70.91
2019-05-14T07:10:29.721Z,71.01
2019-05-14T07:11:29.663Z,70.87
2019-05-14T07:12:29.676Z,69.34
2019-05-14T07:13:29.657Z,69.37
2019-05-14T07:14:29.688Z,69.24
2019-05-14T07:15:29.713Z,69.54
2019-05-14T07:16:29.703Z,69.03
2019-05-14T07:17:29.607Z,68.93
2019-05-14T07:18:45.200Z,69.54
2019-05-14T07:19:30.583Z,69.65
2019-05-14T07:20:29.591Z,69.31
2019-05-14T07:21:29.598Z,69.10
2019-05-14T07:22:29.546Z,69.41
2019-05-14T07:23:29.540Z,69.48
2019-05-14T07:24:29.542Z,68.35
2019-05-14T07:25:29.586Z,68.05
2019-05-14T07:26:29.799Z,68.25
2019-05-14T07:27:29.497Z,68.46
2019-05-14T07:28:29.476Z,68.25
2019-05-14T07:29:29.550Z,68.25
2019-05-14T07:30:29.491Z,68.12
2019-05-14T07:31:29.492Z,67.50
2019-05-14T07:32:29.438Z,67.81
2019-05-14T07:33:29.657Z,68.32
2019-05-14T07:34:29.422Z,68.52
2019-05-14T07:35:29.460Z,67.40
2019-05-14T07:36:29.565Z,67.30
2019-05-14T07:37:29.386Z,67.50
2019-05-14T07:38:29.374Z,67.50
2019-05-14T07:39:29.409Z,68.01
2019-05-14T07:40:29.352Z,67.16
2019-05-14T07:41:29.375Z,67.07
2019-05-14T07:42:29.323Z,66.86
2019-05-14T07:43:29.329Z,67.07
2019-05-14T07:44:29.781Z,66.35
2019-05-14T07:45:29.396Z,67.03
2019-05-14T07:46:29.303Z,67.95
2019-05-14T07:48:30.381Z,67.34
2019-05-14T07:49:29.318Z,66.62
2019-05-14T07:50:29.230Z,66.39
2019-05-14T07:51:29.256Z,65.98
2019-05-14T07:52:29.226Z,64.75
2019-05-14T07:53:38.724Z,64.96
2019-05-14T07:54:30.192Z,65.88
2019-05-14T07:55:29.200Z,64.86
2019-05-14T07:56:29.499Z,64.62
2019-05-14T07:57:29.204Z,64.04
2019-05-14T07:58:29.157Z,64.24
2019-05-14T07:59:29.163Z,64.75
2019-05-14T08:00:29.128Z,65.13
2019-05-14T08:01:29.242Z,64.55
2019-05-14T08:02:29.177Z,64.96
2019-05-14T08:03:29.207Z,65.16
2019-05-14T08:04:29.199Z,64.72
2019-05-14T08:05:29.092Z,64.72
2019-05-14T08:06:29.090Z,64.42
2019-05-14T08:07:29.073Z,63.78
2019-05-14T08:08:29.383Z,64.69
2019-05-14T08:09:29.038Z,63.37
2019-05-14T08:10:29.103Z,63.67
2019-05-14T08:11:29.041Z,62.76
2019-05-14T08:12:29.014Z,62.96
2019-05-14T08:13:28.992Z,63.67
2019-05-14T08:14:33.571Z,63.44
2019-05-14T08:15:29.961Z,63.54
2019-05-14T08:16:29.274Z,62.52
2019-05-14T08:17:28.984Z,62.42
2019-05-14T08:18:29.345Z,62.52
2019-05-14T08:19:31.482Z,61.19
2019-05-14T08:20:29.924Z,61.57
2019-05-14T08:21:29.338Z,60.96
2019-05-14T08:22:29.270Z,60.76
2019-05-14T08:23:28.879Z,62.08
2019-05-14T08:24:30.117Z,61.98
2019-05-14T08:25:28.854Z,61.85
2019-05-14T08:26:29.467Z,61.04
2019-05-14T08:27:31.020Z,61.24
2019-05-14T08:28:29.125Z,61.75
2019-05-14T08:29:28.844Z,61.24
2019-05-14T08:30:28.916Z,61.31
2019-05-14T08:31:29.382Z,60.09
2019-05-14T08:32:28.944Z,60.50
2019-05-14T08:33:29.171Z,60.50
2019-05-14T08:34:32.204Z,61.29
2019-05-14T08:35:29.108Z,59.75
2019-05-14T08:36:28.820Z,60.16
2019-05-14T08:37:28.750Z,58.23
2019-05-14T08:38:28.719Z,59.05
2019-05-14T08:39:28.757Z,58.44
2019-05-14T08:40:28.861Z,58.64
2019-05-14T08:41:29.000Z,57.52
2019-05-14T08:42:29.197Z,58.74
2019-05-14T08:43:29.330Z,57.90
2019-05-14T08:44:29.371Z,58.10
2019-05-14T08:45:28.641Z,57.79
2019-05-14T08:46:28.638Z,58.10
2019-05-14T08:47:29.190Z,58.99
2019-05-14T08:48:29.539Z,57.26
2019-05-14T08:49:40.304Z,58.69
2019-05-14T08:50:29.588Z,58.15
2019-05-14T08:51:29.618Z,59.06
2019-05-14T08:52:28.980Z,56.42
2019-05-14T08:53:28.982Z,57.10
2019-05-14T08:54:28.632Z,56.29
2019-05-14T08:55:29.603Z,54.49
2019-05-14T08:56:28.534Z,55.30
2019-05-14T08:57:29.252Z,56.55
2019-05-14T08:58:29.905Z,56.27
2019-05-14T08:59:28.810Z,56.88
2019-05-14T09:00:28.699Z,56.65
2019-05-14T09:01:29.261Z,57.46
2019-05-14T09:02:28.713Z,56.62
2019-05-14T09:03:28.886Z,56.52
2019-05-14T09:04:30.282Z,55.20
2019-05-14T09:05:28.763Z,56.24
2019-05-14T09:06:28.980Z,56.75
2019-05-14T09:07:29.001Z,57.23
2019-05-14T09:08:28.600Z,54.97
2019-05-14T09:09:29.294Z,55.07
2019-05-14T09:10:28.638Z,53.75
2019-05-14T09:11:35.070Z,54.46
2019-05-14T09:12:29.339Z,52.23
2019-05-14T09:13:28.909Z,53.75
2019-05-14T09:14:28.347Z,53.52
2019-05-14T09:15:28.777Z,53.50
2019-05-14T09:16:41.833Z,53.80
2019-05-14T09:17:29.296Z,52.89
2019-05-14T09:18:29.042Z,52.86
2019-05-14T09:19:28.825Z,51.95
2019-05-14T09:20:29.010Z,53.32
2019-05-14T09:21:29.659Z,51.67
2019-05-14T09:22:28.906Z,51.45
2019-05-14T09:23:28.811Z,49.93
2019-05-14T09:24:29.033Z,52.33
2019-05-14T09:25:29.134Z,51.81
2019-05-14T09:26:28.552Z,50.09
2019-05-14T09:27:29.259Z,50.26
2019-05-14T09:28:28.651Z,48.82
2019-05-14T09:29:29.694Z,48.54
2019-05-14T09:30:28.950Z,49.25
2019-05-14T09:31:29.560Z,49.05
2019-05-14T09:32:29.205Z,46.01
2019-05-14T09:33:29.608Z,47.35
2019-05-14T09:34:29.033Z,47.25
2019-05-14T09:35:29.281Z,47.45
2019-05-14T09:36:28.923Z,47.09
2019-05-14T09:37:28.857Z,48.00
2019-05-14T09:38:29.290Z,48.43
2019-05-14T09:39:29.137Z,47.95
2019-05-14T09:40:29.043Z,48.23
2019-05-14T09:41:30.872Z,48.51
2019-05-14T09:42:28.560Z,47.85
2019-05-14T09:43:28.625Z,47.95
2019-05-14T09:44:29.290Z,49.39
2019-05-14T09:45:28.309Z,47.26
2019-05-14T09:46:28.959Z,46.06
2019-05-14T09:47:28.317Z,45.01
2019-05-14T09:48:28.592Z,44.81
2019-05-14T09:49:28.318Z,44.48
2019-05-14T09:50:29.128Z,44.03
2019-05-14T09:51:28.785Z,43.41
2019-05-14T09:52:29.338Z,44.21
2019-05-14T09:53:28.842Z,42.55
2019-05-14T09:54:28.653Z,42.43
2019-05-14T09:55:28.227Z,40.59
2019-05-14T09:56:29.060Z,40.09
2019-05-14T09:57:28.294Z,38.48
2019-05-14T09:58:28.388Z,40.68
2019-05-14T09:59:28.081Z,40.56
2019-05-14T10:00:27.880Z,40.25
2019-05-14T10:01:27.807Z,41.16
2019-05-14T10:02:27.892Z,42.07
2019-05-14T10:03:27.815Z,40.96
2019-05-14T10:04:27.820Z,41.89
2019-05-14T10:05:27.760Z,42.80
2019-05-14T10:06:28.485Z,40.66
2019-05-14T10:07:28.761Z,41.20
2019-05-14T10:08:28.566Z,42.68
2019-05-14T10:09:29.007Z,42.49
2019-05-14T10:10:30.479Z,43.93
2019-05-14T10:11:28.850Z,44.36
2019-05-14T10:12:27.702Z,42.63
2019-05-14T10:13:28.197Z,44.64
2019-05-14T10:14:29.775Z,43.32
2019-05-14T10:15:28.636Z,41.40
2019-05-14T10:16:29.155Z,42.61
2019-05-14T10:17:29.006Z,41.49
2019-05-14T10:18:28.491Z,41.46
2019-05-14T10:19:29.522Z,42.78
2019-05-14T10:20:40.349Z,42.66
2019-05-14T10:21:29.333Z,41.12
2019-05-14T10:22:28.535Z,43.32
2019-05-14T10:23:28.381Z,41.59
2019-05-14T10:24:29.131Z,40.58
2019-05-14T10:25:28.725Z,39.87
2019-05-14T10:26:28.827Z,41.20
2019-05-14T10:27:28.416Z,40.61
2019-05-14T10:28:28.893Z,40.82
2019-05-14T10:29:28.633Z,41.10
2019-05-14T10:30:28.598Z,42.80
2019-05-14T10:31:28.885Z,40.68
2019-05-14T10:32:29.450Z,43.38
2019-05-14T10:33:28.768Z,40.44
2019-05-14T10:34:28.706Z,39.61
2019-05-14T10:35:28.565Z,41.11
2019-05-14T10:36:29.832Z,41.71
2019-05-14T10:37:28.753Z,40.40
2019-05-14T10:38:29.532Z,38.08
2019-05-14T10:39:29.751Z,38.08
2019-05-14T10:40:29.243Z,38.79
2019-05-14T10:41:29.022Z,38.67
2019-05-14T10:42:29.370Z,39.79
2019-05-14T10:43:28.837Z,40.38
2019-05-14T10:44:29.292Z,40.22
2019-05-14T10:45:28.900Z,42.98
2019-05-14T10:46:29.127Z,40.98
2019-05-14T10:47:29.170Z,41.20
2019-05-14T10:49:29.917Z,43.29
2019-05-14T10:51:28.498Z,44.03
2019-05-14T10:53:29.185Z,43.63
2019-05-14T10:54:29.253Z,44.84
2019-05-14T10:55:27.909Z,46.14
2019-05-14T10:56:29.729Z,43.73
2019-05-14T10:57:29.017Z,43.14
2019-05-14T10:59:29.394Z,43.57
2019-05-14T11:01:28.539Z,43.77
2019-05-14T11:03:30.057Z,43.49
2019-05-14T11:05:28.264Z,43.38
2019-05-14T11:06:29.334Z,43.99
2019-05-14T11:07:29.164Z,42.78
2019-05-14T11:09:28.579Z,42.35
2019-05-14T11:11:29.075Z,44.15
2019-05-14T11:12:29.659Z,42.52
2019-05-14T11:13:29.373Z,42.82
2019-05-14T11:15:28.549Z,41.20
2019-05-14T11:17:29.081Z,42.72
2019-05-14T11:19:28.230Z,41.89
2019-05-14T11:21:30.126Z,41.87
2019-05-14T11:22:29.014Z,41.04
2019-05-14T11:23:29.611Z,40.61
2019-05-14T11:25:28.728Z,38.56
2019-05-14T11:27:29.219Z,38.56
2019-05-14T11:28:28.937Z,39.06
2019-05-14T11:29:29.255Z,38.15
2019-05-14T11:31:29.489Z,39.30
2019-05-14T11:32:29.199Z,40.52
2019-05-14T11:33:29.522Z,38.80
2019-05-14T11:35:28.765Z,40.73
2019-05-14T11:36:29.264Z,39.00
2019-05-14T11:37:28.174Z,39.17
2019-05-14T11:38:36.939Z,39.15
2019-05-14T11:39:28.824Z,38.13
2019-05-14T11:40:29.486Z,38.40
2019-05-14T11:41:26.703Z,38.99
2019-05-14T11:42:31.431Z,39.28
2019-05-14T11:43:28.631Z,37.96
2019-05-14T11:44:29.117Z,36.74
2019-05-14T11:45:26.676Z,37.45
2019-05-14T11:46:41.695Z,37.12
2019-05-14T11:47:27.643Z,37.24
2019-05-14T11:48:29.105Z,37.58
2019-05-14T11:49:26.633Z,37.38
2019-05-14T11:50:29.058Z,38.00
2019-05-14T11:51:54.733Z,39.03
2019-05-14T11:52:28.729Z,39.47
2019-05-14T11:53:26.753Z,39.28
2019-05-14T11:54:29.034Z,39.22
2019-05-14T11:56:29.452Z,39.04
2019-05-14T11:57:29.208Z,38.53
2019-05-14T11:58:29.268Z,39.36
2019-05-14T11:59:29.359Z,40.66
2019-05-14T12:00:29.313Z,39.61
2019-05-14T12:02:29.003Z,40.36
2019-05-14T12:04:28.389Z,37.63
2019-05-14T12:06:30.254Z,39.33
2019-05-14T12:08:28.828Z,38.93
2019-05-14T12:09:28.987Z,36.49
2019-05-14T12:10:29.101Z,36.08
2019-05-14T12:12:28.792Z,37.26
2019-05-14T12:14:27.538Z,36.55
2019-05-14T12:16:29.152Z,38.25
2019-05-14T12:18:29.227Z,37.52
2019-05-14T12:19:30.004Z,38.13
2019-05-14T12:20:29.395Z,38.13
2019-05-14T12:21:29.995Z,35.71
2019-05-14T12:22:28.608Z,37.04
2019-05-14T12:23:30.112Z,36.74
2019-05-14T12:24:26.263Z,35.83
2019-05-14T12:25:30.248Z,35.73
2019-05-14T12:26:28.255Z,36.66
2019-05-14T12:28:28.945Z,36.55
2019-05-14T12:29:30.501Z,36.86
2019-05-14T12:30:28.552Z,36.94
2019-05-14T12:32:29.445Z,35.03
2019-05-14T12:33:30.672Z,34.25
2019-05-14T12:34:29.252Z,35.68
2019-05-14T12:35:29.409Z,38.18
2019-05-14T12:36:26.133Z,36.05
2019-05-14T12:37:28.905Z,37.04
2019-05-14T12:38:29.548Z,37.23
2019-05-14T12:40:28.855Z,34.29
2019-05-14T12:41:28.699Z,36.70
2019-05-14T12:42:26.053Z,35.51
2019-05-14T12:44:28.893Z,36.10
2019-05-14T12:45:26.101Z,36.58
2019-05-14T12:46:26.048Z,37.59
2019-05-14T12:48:29.557Z,34.00
2019-05-14T12:49:26.132Z,35.33
2019-05-14T12:50:26.189Z,36.05
2019-05-14T12:51:26.157Z,36.46
2019-05-14T12:52:26.347Z,36.76
2019-05-14T12:53:28.511Z,34.54
2019-05-14T12:54:25.933Z,34.74
2019-05-14T12:55:28.467Z,36.15
2019-05-14T12:56:25.915Z,36.64
2019-05-14T12:57:25.933Z,35.73
2019-05-14T12:58:28.326Z,35.33
2019-05-14T12:59:25.969Z,35.65
2019-05-14T13:00:25.887Z,35.95
2019-05-14T13:01:26.107Z,35.33
2019-05-14T13:02:25.861Z,34.32
2019-05-14T13:03:28.363Z,35.36
2019-05-14T13:04:25.846Z,35.78
2019-05-14T13:05:25.895Z,37.01
2019-05-14T13:06:25.830Z,36.02
2019-05-14T13:07:25.917Z,36.94
2019-05-14T13:08:25.779Z,34.91
2019-05-14T13:09:25.830Z,34.69
2019-05-14T13:10:25.786Z,34.99
2019-05-14T13:11:25.918Z,36.19
2019-05-14T13:12:25.758Z,35.86
2019-05-14T13:13:25.846Z,35.16
2019-05-14T13:14:28.206Z,35.63
2019-05-14T13:15:28.515Z,35.82
2019-05-14T13:16:28.302Z,35.03
2019-05-14T13:17:27.993Z,36.13
2019-05-14T13:18:25.671Z,36.82
2019-05-14T13:19:25.703Z,35.51
2019-05-14T13:20:25.668Z,37.73
2019-05-14T13:21:25.724Z,36.00
2019-05-14T13:22:38.297Z,37.08
2019-05-14T13:23:29.149Z,34.47
2019-05-14T13:24:25.756Z,33.87
2019-05-14T13:25:25.724Z,34.67
2019-05-14T13:26:25.712Z,34.16